Time;durP1;ratioP1;P1;durP2;ratioP2;P2;SDS_P1;SDS_P2;PMS_P1;PMS_P2;Temp;Humidity;BMP_temperature;BMP_pressure;BME280_temperature;BME280_humidity;BME280_pressure;Samples;Min_cycle;Max_cycle;Signal;HPM_P1;HPM_P2
2023/03/23 00:00:47;;;;;;;;;;;16.20;91.20;;;;;;5113589;28;19908;-84
2023/03/23 00:03:13;;;;;;;;;;;16.20;91.20;;;;;;5097377;28;19912;-84
2023/03/23 00:05:41;;;;;;;;;;;16.20;91.30;;;;;;5112722;28;19958;-84
2023/03/23 00:08:08;;;;;;;;;;;16.20;91.30;;;;;;5112725;28;20193;-84
2023/03/23 00:10:37;;;;;;;;;;;16.20;91.30;;;;;;5112452;28;19916;-85
2023/03/23 00:13:04;;;;;;;;;;;16.20;91.40;;;;;;5112366;28;20173;-85
2023/03/23 00:15:33;;;;;;;;;;;16.20;91.40;;;;;;5112277;28;20262;-84
2023/03/23 00:18:04;;;;;;;;;;;16.20;91.50;;;;;;5112274;28;19912;-85
2023/03/23 00:20:41;;;;;;;;;;;16.20;91.50;;;;;;5094947;28;20346;-84
2023/03/23 00:23:07;;;;;;;;;;;16.20;91.50;;;;;;5110005;28;20494;-85
2023/03/23 00:25:32;;;;;;;;;;;16.20;91.50;;;;;;5110563;28;20007;-84
2023/03/23 00:27:58;;;;;;;;;;;16.20;91.60;;;;;;5110907;28;19908;-84
2023/03/23 00:30:24;;;;;;;;;;;16.20;91.60;;;;;;5110904;28;19947;-84
2023/03/23 00:32:50;;;;;;;;;;;16.20;91.60;;;;;;5111231;28;19965;-84
2023/03/23 00:35:17;;;;;;;;;;;16.20;91.60;;;;;;5111416;28;20189;-84
2023/03/23 00:37:44;;;;;;;;;;;16.20;91.60;;;;;;5113103;28;19962;-84
2023/03/23 00:40:10;;;;;;;;;;;16.20;91.70;;;;;;5111718;28;20266;-85
2023/03/23 00:42:36;;;;;;;;;;;16.20;91.70;;;;;;5094247;28;19969;-84
2023/03/23 00:45:02;;;;;;;;;;;16.20;91.70;;;;;;5111990;28;19919;-85
2023/03/23 00:47:28;;;;;;;;;;;16.10;91.70;;;;;;5076784;28;19947;-86
2023/03/23 00:50:17;;;;;;;;;;;16.10;91.70;;;;;;5093864;28;20348;-85
2023/03/23 00:52:42;;;;;;;;;;;16.10;91.70;;;;;;5110883;28;19908;-86
2023/03/23 00:55:08;;;;;;;;;;;16.10;91.70;;;;;;5109268;28;20202;-85
2023/03/23 00:57:34;;;;;;;;;;;16.10;91.70;;;;;;5109904;28;19916;-86
2023/03/23 00:59:59;;;;;;;;;;;16.10;91.80;;;;;;5110384;28;19908;-85
2023/03/23 01:02:25;;;;;;;;;;;16.20;91.80;;;;;;5110618;28;19919;-85
2023/03/23 01:04:52;;;;;;;;;;;16.10;91.80;;;;;;5110612;28;20268;-85
2023/03/23 01:07:18;;;;;;;;;;;16.20;91.80;;;;;;5094235;28;19973;-85
2023/03/23 01:09:44;;;;;;;;;;;16.10;91.80;;;;;;5110485;28;19993;-85
2023/03/23 01:12:10;;;;;;;;;;;16.10;91.80;;;;;;5112364;28;19915;-85
2023/03/23 01:14:36;;;;;;;;;;;16.10;91.80;;;;;;5111199;28;19957;-85
2023/03/23 01:17:02;;;;;;;;;;;16.10;91.90;;;;;;5111273;28;19924;-85
2023/03/23 01:19:28;;;;;;;;;;;16.10;91.90;;;;;;5111722;28;20244;-85
2023/03/23 01:21:54;;;;;;;;;;;16.10;91.90;;;;;;5110922;28;20360;-86
2023/03/23 01:24:19;;;;;;;;;;;16.10;91.90;;;;;;5111604;28;20278;-85
2023/03/23 01:26:45;;;;;;;;;;;16.10;91.90;;;;;;5111211;28;20013;-87
2023/03/23 01:29:10;;;;;;;;;;;16.10;91.90;;;;;;5110963;28;19938;-85
2023/03/23 01:31:36;;;;;;;;;;;16.20;91.90;;;;;;5111381;28;19944;-85
2023/03/23 01:34:03;;;;;;;;;;;16.10;91.90;;;;;;5111579;28;20258;-85
2023/03/23 01:36:32;;;;;;;;;;;16.10;91.90;;;;;;5111408;28;19908;-86
2023/03/23 01:38:58;;;;;;;;;;;16.10;92.00;;;;;;5110919;28;19923;-87
2023/03/23 01:41:24;;;;;;;;;;;16.10;92.00;;;;;;5111477;28;19912;-85
2023/03/23 01:43:53;;;;;;;;;;;16.10;92.00;;;;;;5111109;28;19915;-84
2023/03/23 01:46:22;;;;;;;;;;;16.10;92.00;;;;;;5111316;28;19908;-85
2023/03/23 01:48:48;;;;;;;;;;;16.10;92.00;;;;;;5110751;28;19998;-85
2023/03/23 01:51:15;;;;;;;;;;;16.10;92.10;;;;;;5095683;28;20240;-85
2023/03/23 01:53:50;;;;;;;;;;;16.10;92.10;;;;;;5113762;28;19919;-85
2023/03/23 01:56:18;;;;;;;;;;;16.10;92.10;;;;;;5081324;28;19930;-85
2023/03/23 01:58:44;;;;;;;;;;;16.10;92.10;;;;;;5115260;28;19912;-84
2023/03/23 02:01:11;;;;;;;;;;;16.10;92.10;;;;;;5081101;28;19915;-85
2023/03/23 02:03:39;;;;;;;;;;;16.10;92.20;;;;;;5114881;28;20185;-85
2023/03/23 02:06:04;;;;;;;;;;;16.10;92.20;;;;;;5114931;28;19912;-85
2023/03/23 02:08:32;;;;;;;;;;;16.10;92.20;;;;;;5080951;28;19915;-85
2023/03/23 02:10:57;;;;;;;;;;;16.10;92.20;;;;;;5098536;28;20343;-86
2023/03/23 02:13:23;;;;;;;;;;;16.10;92.20;;;;;;5114603;28;19908;-85
2023/03/23 02:16:03;;;;;;;;;;;16.10;92.30;;;;;;5114235;28;19920;-85
2023/03/23 02:18:38;;;;;;;;;;;16.10;92.30;;;;;;5111514;28;20075;-86
2023/03/23 02:21:04;;;;;;;;;;;16.10;92.40;;;;;;5112029;28;20305;-85
2023/03/23 02:23:32;;;;;;;;;;;16.00;92.30;;;;;;5111707;28;19908;-88
2023/03/23 02:26:02;;;;;;;;;;;16.10;92.40;;;;;;5110673;28;19939;-85
2023/03/23 02:28:37;;;;;;;;;;;16.00;92.40;;;;;;5096527;28;19908;-85
2023/03/23 02:31:17;;;;;;;;;;;16.00;92.50;;;;;;5113285;28;19974;-87
2023/03/23 02:33:46;;;;;;;;;;;16.00;92.50;;;;;;5112814;28;19916;-85
2023/03/23 02:36:20;;;;;;;;;;;16.00;92.60;;;;;;5113900;28;20468;-85
2023/03/23 02:38:55;;;;;;;;;;;16.00;92.60;;;;;;5113165;28;19911;-85
2023/03/23 02:41:22;;;;;;;;;;;16.00;92.70;;;;;;5112614;28;19912;-85
2023/03/23 02:43:49;;;;;;;;;;;16.00;92.70;;;;;;5113101;28;19920;-86
2023/03/23 02:46:15;;;;;;;;;;;16.00;92.70;;;;;;5113596;28;19939;-86
2023/03/23 02:48:42;;;;;;;;;;;16.00;92.70;;;;;;5114039;28;19916;-86
2023/03/23 02:51:08;;;;;;;;;;;16.00;92.70;;;;;;5097465;28;19908;-86
2023/03/23 02:53:36;;;;;;;;;;;16.00;92.70;;;;;;5097850;28;19951;-86
2023/03/23 02:56:04;;;;;;;;;;;16.00;92.70;;;;;;5112787;28;20264;-86
2023/03/23 02:58:30;;;;;;;;;;;16.00;92.70;;;;;;5096782;28;19919;-86
2023/03/23 03:00:58;;;;;;;;;;;16.00;92.70;;;;;;5112641;28;19908;-86
2023/03/23 03:03:27;;;;;;;;;;;16.00;92.70;;;;;;5112255;28;19912;-85
2023/03/23 03:06:02;;;;;;;;;;;16.00;92.70;;;;;;5077540;28;19915;-85
2023/03/23 03:08:28;;;;;;;;;;;16.00;92.70;;;;;;5110864;28;19909;-85
2023/03/23 03:11:11;;;;;;;;;;;16.00;92.70;;;;;;5110293;28;19946;-85
2023/03/23 03:13:51;;;;;;;;;;;16.00;92.70;;;;;;5111390;28;20239;-86
2023/03/23 03:16:21;;;;;;;;;;;16.00;92.80;;;;;;5110923;28;19916;-85
2023/03/23 03:18:52;;;;;;;;;;;16.00;92.80;;;;;;5110972;28;19923;-85
2023/03/23 03:21:20;;;;;;;;;;;16.00;92.90;;;;;;5094678;28;19908;-86
2023/03/23 03:23:49;;;;;;;;;;;15.90;92.80;;;;;;5110951;28;20152;-85
2023/03/23 03:26:16;;;;;;;;;;;15.90;92.80;;;;;;5110495;28;20003;-86
2023/03/23 03:28:47;;;;;;;;;;;15.90;92.80;;;;;;5111598;28;19915;-86
2023/03/23 03:31:14;;;;;;;;;;;15.90;92.90;;;;;;5094730;28;20089;-86
2023/03/23 03:33:40;;;;;;;;;;;15.90;92.90;;;;;;5111375;28;19916;-85
2023/03/23 03:36:08;;;;;;;;;;;15.90;92.90;;;;;;5111345;28;20018;-86
2023/03/23 03:38:41;;;;;;;;;;;16.00;93.00;;;;;;5110195;28;19955;-86
2023/03/23 03:41:06;;;;;;;;;;;15.90;93.00;;;;;;5110668;28;19908;-86
2023/03/23 03:43:32;;;;;;;;;;;15.90;93.00;;;;;;5111335;28;19930;-86
2023/03/23 03:45:58;;;;;;;;;;;15.90;93.00;;;;;;5110665;28;19908;-86
2023/03/23 03:48:23;;;;;;;;;;;15.90;93.00;;;;;;5112493;28;19908;-86
2023/03/23 03:50:51;;;;;;;;;;;15.90;93.00;;;;;;5078052;28;19908;-86
2023/03/23 03:53:17;;;;;;;;;;;15.90;93.10;;;;;;5095820;28;19908;-86
2023/03/23 03:55:48;;;;;;;;;;;15.90;93.10;;;;;;5111302;28;20267;-86
2023/03/23 03:58:14;;;;;;;;;;;15.90;93.10;;;;;;5093530;28;20240;-86
2023/03/23 04:00:41;;;;;;;;;;;15.90;93.10;;;;;;5110204;28;19918;-86
2023/03/23 04:03:07;;;;;;;;;;;15.90;93.10;;;;;;5109829;28;20282;-86
2023/03/23 04:05:32;;;;;;;;;;;15.90;93.10;;;;;;5110682;28;19908;-86
2023/03/23 04:08:01;;;;;;;;;;;15.90;93.10;;;;;;5110964;28;19953;-86
2023/03/23 04:10:27;;;;;;;;;;;15.90;93.10;;;;;;5111663;28;19908;-86
2023/03/23 04:12:53;;;;;;;;;;;15.90;93.10;;;;;;5111574;28;20305;-86
2023/03/23 04:15:18;;;;;;;;;;;15.90;93.10;;;;;;5111969;28;19916;-86
2023/03/23 04:17:44;;;;;;;;;;;15.90;93.10;;;;;;5111707;28;19912;-86
2023/03/23 04:20:17;;;;;;;;;;;15.90;93.10;;;;;;5111588;28;19916;-86
2023/03/23 04:22:48;;;;;;;;;;;15.90;93.20;;;;;;5077189;28;19920;-86
2023/03/23 04:25:15;;;;;;;;;;;15.90;93.20;;;;;;5110835;28;19908;-86
2023/03/23 04:27:46;;;;;;;;;;;15.90;93.20;;;;;;5111607;28;20000;-87
2023/03/23 04:30:12;;;;;;;;;;;15.90;93.20;;;;;;5111485;28;19940;-86
2023/03/23 04:32:41;;;;;;;;;;;15.90;93.20;;;;;;5111362;28;19920;-90
2023/03/23 04:35:09;;;;;;;;;;;15.90;93.20;;;;;;5112503;28;19908;-86
2023/03/23 04:37:34;;;;;;;;;;;15.90;93.20;;;;;;5111746;28;20206;-86
2023/03/23 04:40:01;;;;;;;;;;;15.90;93.30;;;;;;5112314;28;19973;-86
2023/03/23 04:42:28;;;;;;;;;;;15.90;93.20;;;;;;5112599;28;20167;-85
2023/03/23 04:44:54;;;;;;;;;;;15.90;93.30;;;;;;5095238;28;19915;-85
2023/03/23 04:47:19;;;;;;;;;;;15.90;93.30;;;;;;5112190;28;19908;-86
2023/03/23 04:49:45;;;;;;;;;;;15.90;93.30;;;;;;5111781;28;20165;-86
2023/03/23 04:52:11;;;;;;;;;;;15.90;93.30;;;;;;5110903;28;19939;-86
2023/03/23 04:54:36;;;;;;;;;;;15.90;93.30;;;;;;5110450;28;19908;-86
2023/03/23 04:57:03;;;;;;;;;;;15.90;93.40;;;;;;5109020;28;19908;-86
2023/03/23 04:59:30;;;;;;;;;;;15.90;93.40;;;;;;5108237;28;20288;-86
2023/03/23 05:01:56;;;;;;;;;;;15.90;93.40;;;;;;5091297;28;20220;-86
2023/03/23 05:04:22;;;;;;;;;;;15.90;93.50;;;;;;5109453;28;20266;-87
2023/03/23 05:06:48;;;;;;;;;;;15.90;93.40;;;;;;5108672;28;20011;-86
2023/03/23 05:09:14;;;;;;;;;;;15.90;93.40;;;;;;5092861;28;19952;-86
2023/03/23 05:11:40;;;;;;;;;;;15.90;93.40;;;;;;5092476;28;20266;-86
2023/03/23 05:14:05;;;;;;;;;;;15.90;93.50;;;;;;5091496;28;19908;-85
2023/03/23 05:16:31;;;;;;;;;;;15.80;93.40;;;;;;5108116;28;20278;-85
2023/03/23 05:18:58;;;;;;;;;;;15.80;93.40;;;;;;5110099;28;19912;-85
2023/03/23 05:21:23;;;;;;;;;;;15.90;93.40;;;;;;5110273;28;20301;-86
2023/03/23 05:23:54;;;;;;;;;;;15.80;93.40;;;;;;5093059;28;19912;-85
2023/03/23 05:26:20;;;;;;;;;;;15.80;93.50;;;;;;5107950;28;19908;-85
2023/03/23 05:28:46;;;;;;;;;;;15.80;93.50;;;;;;5109874;28;19908;-86
2023/03/23 05:31:13;;;;;;;;;;;15.90;93.50;;;;;;5113497;28;19908;-85
2023/03/23 05:33:38;;;;;;;;;;;15.80;93.50;;;;;;5112432;28;19916;-85
2023/03/23 05:36:06;;;;;;;;;;;15.80;93.50;;;;;;5109782;28;19923;-85
2023/03/23 05:38:32;;;;;;;;;;;15.80;93.50;;;;;;5094260;28;19912;-85
2023/03/23 05:41:00;;;;;;;;;;;15.80;93.50;;;;;;5110739;28;20106;-86
2023/03/23 05:43:26;;;;;;;;;;;15.90;93.60;;;;;;5109577;28;20007;-86
2023/03/23 05:45:52;;;;;;;;;;;15.80;93.40;;;;;;5110307;28;20361;-86
2023/03/23 05:48:17;;;;;;;;;;;15.90;93.50;;;;;;5093896;28;19908;-86
2023/03/23 05:50:43;;;;;;;;;;;15.80;93.50;;;;;;5110109;28;20321;-85
2023/03/23 05:53:09;;;;;;;;;;;15.80;93.60;;;;;;5111953;28;19949;-85
2023/03/23 05:55:35;;;;;;;;;;;15.80;93.60;;;;;;5112018;28;19908;-86
2023/03/23 05:58:01;;;;;;;;;;;15.80;93.60;;;;;;5112927;28;20198;-86
2023/03/23 06:00:42;;;;;;;;;;;15.80;93.60;;;;;;5112146;28;19951;-85
2023/03/23 06:03:08;;;;;;;;;;;15.90;93.80;;;;;;5109961;28;20166;-85
2023/03/23 06:05:34;;;;;;;;;;;15.90;93.90;;;;;;5109169;28;19908;-85
2023/03/23 06:07:59;;;;;;;;;;;15.90;94.20;;;;;;5109889;28;20308;-85
2023/03/23 06:10:26;;;;;;;;;;;15.90;94.40;;;;;;5108684;28;19908;-85
2023/03/23 06:12:52;;;;;;;;;;;15.90;94.50;;;;;;5108741;28;19970;-86
2023/03/23 06:15:18;;;;;;;;;;;15.90;94.70;;;;;;5106990;28;19916;-86
2023/03/23 06:17:43;;;;;;;;;;;15.90;94.80;;;;;;5106576;28;19916;-85
2023/03/23 06:20:09;;;;;;;;;;;15.90;94.90;;;;;;5108890;28;19954;-85
2023/03/23 06:22:39;;;;;;;;;;;15.90;95.40;;;;;;5107387;28;20307;-85
2023/03/23 06:25:08;;;;;;;;;;;16.00;95.50;;;;;;5106654;28;19912;-86
2023/03/23 06:27:35;;;;;;;;;;;16.00;95.30;;;;;;5089873;28;20152;-86
2023/03/23 06:30:01;;;;;;;;;;;16.00;95.30;;;;;;5105310;28;19976;-86
2023/03/23 06:32:28;;;;;;;;;;;16.00;95.30;;;;;;5104027;28;19912;-87
2023/03/23 06:34:54;;;;;;;;;;;16.00;95.30;;;;;;5101221;28;20193;-86
2023/03/23 06:37:20;;;;;;;;;;;16.00;95.40;;;;;;5085700;28;20350;-86
2023/03/23 06:39:46;;;;;;;;;;;16.00;95.70;;;;;;5102022;28;19974;-86
2023/03/23 06:42:12;;;;;;;;;;;16.10;95.40;;;;;;5101406;28;20025;-86
2023/03/23 06:44:38;;;;;;;;;;;16.10;95.40;;;;;;5100606;28;19939;-86
2023/03/23 06:47:03;;;;;;;;;;;16.10;95.40;;;;;;5103383;28;19953;-86
2023/03/23 06:49:29;;;;;;;;;;;16.10;95.40;;;;;;5103610;28;20010;-87
2023/03/23 06:52:00;;;;;;;;;;;16.10;95.40;;;;;;5104480;28;19962;-86
2023/03/23 06:54:26;;;;;;;;;;;16.20;95.40;;;;;;5103600;28;20452;-86
2023/03/23 06:56:51;;;;;;;;;;;16.20;95.40;;;;;;5089564;28;19916;-86
2023/03/23 06:59:17;;;;;;;;;;;16.20;95.40;;;;;;5104024;28;19912;-86
2023/03/23 07:01:42;;;;;;;;;;;16.20;95.40;;;;;;5087351;28;19909;-86
2023/03/23 07:04:08;;;;;;;;;;;16.20;95.50;;;;;;5102305;28;19908;-87
2023/03/23 07:06:33;;;;;;;;;;;16.20;95.50;;;;;;5100716;28;20312;-86
2023/03/23 07:08:59;;;;;;;;;;;16.30;95.50;;;;;;5100652;28;20403;-86
2023/03/23 07:11:25;;;;;;;;;;;16.30;95.50;;;;;;5101545;28;19966;-86
2023/03/23 07:13:50;;;;;;;;;;;16.30;95.50;;;;;;5103403;28;19908;-85
2023/03/23 07:16:17;;;;;;;;;;;16.30;95.40;;;;;;5102704;28;19908;-86
2023/03/23 07:18:42;;;;;;;;;;;16.30;95.50;;;;;;5103832;28;20151;-86
2023/03/23 07:21:08;;;;;;;;;;;16.40;95.50;;;;;;5104050;28;19999;-87
2023/03/23 07:23:34;;;;;;;;;;;16.40;95.50;;;;;;5103966;28;19955;-86
2023/03/23 07:25:59;;;;;;;;;;;16.40;95.50;;;;;;5105563;28;19908;-87
2023/03/23 07:28:26;;;;;;;;;;;16.40;95.60;;;;;;5105564;28;19908;-87
2023/03/23 07:30:51;;;;;;;;;;;16.40;95.50;;;;;;5106603;28;20007;-87
2023/03/23 07:33:17;;;;;;;;;;;16.40;95.40;;;;;;5107606;28;19971;-86
2023/03/23 07:35:42;;;;;;;;;;;16.40;95.40;;;;;;5103463;28;19998;-86
2023/03/23 07:38:08;;;;;;;;;;;16.50;95.50;;;;;;5103578;28;20288;-86
2023/03/23 07:40:34;;;;;;;;;;;16.50;95.40;;;;;;5088599;28;19969;-86
2023/03/23 07:43:00;;;;;;;;;;;16.50;95.30;;;;;;5086764;28;19908;-86
2023/03/23 07:45:26;;;;;;;;;;;16.50;95.20;;;;;;5101782;28;19917;-87
2023/03/23 07:47:52;;;;;;;;;;;16.50;95.10;;;;;;5099466;28;20444;-86
2023/03/23 07:50:21;;;;;;;;;;;16.60;95.00;;;;;;5101834;28;20018;-87
2023/03/23 07:52:48;;;;;;;;;;;16.60;94.90;;;;;;5101075;28;20149;-87
2023/03/23 07:55:17;;;;;;;;;;;16.60;94.80;;;;;;5101176;28;20304;-87
2023/03/23 07:57:43;;;;;;;;;;;16.60;94.70;;;;;;5099825;28;20194;-87
2023/03/23 08:00:19;;;;;;;;;;;16.60;94.70;;;;;;5100626;28;19999;-87
2023/03/23 08:02:48;;;;;;;;;;;16.60;94.60;;;;;;5102299;28;19916;-87
2023/03/23 08:05:14;;;;;;;;;;;16.60;94.50;;;;;;5101356;28;19908;-86
2023/03/23 08:07:40;;;;;;;;;;;16.60;94.40;;;;;;5085980;28;19945;-87
2023/03/23 08:10:10;;;;;;;;;;;16.60;94.40;;;;;;5101992;28;19908;-86
2023/03/23 08:12:36;;;;;;;;;;;16.60;94.30;;;;;;5103309;28;19908;-86
2023/03/23 08:15:02;;;;;;;;;;;16.60;94.30;;;;;;5103594;28;20167;-86
2023/03/23 08:17:28;;;;;;;;;;;16.60;94.20;;;;;;5104076;28;19999;-86
2023/03/23 08:19:54;;;;;;;;;;;16.60;94.20;;;;;;5104147;28;20086;-86
2023/03/23 08:22:20;;;;;;;;;;;16.60;94.10;;;;;;5067539;28;19969;-86
2023/03/23 08:24:46;;;;;;;;;;;16.60;94.10;;;;;;5102630;28;20018;-86
2023/03/23 08:27:12;;;;;;;;;;;16.60;94.10;;;;;;5102147;28;20371;-86
2023/03/23 08:29:38;;;;;;;;;;;16.60;94.10;;;;;;5101586;28;20046;-86
2023/03/23 08:32:04;;;;;;;;;;;16.70;94.00;;;;;;5103383;28;19973;-86
2023/03/23 08:34:30;;;;;;;;;;;16.70;93.90;;;;;;5103350;28;19920;-86
2023/03/23 08:36:56;;;;;;;;;;;16.70;93.80;;;;;;5087416;28;19909;-87
2023/03/23 08:39:23;;;;;;;;;;;16.70;93.80;;;;;;5101382;28;20002;-86
2023/03/23 08:41:48;;;;;;;;;;;16.70;93.70;;;;;;5086345;28;20133;-88
2023/03/23 08:44:15;;;;;;;;;;;16.70;93.70;;;;;;5102009;28;20023;-86
2023/03/23 08:46:41;;;;;;;;;;;16.70;93.60;;;;;;5102639;28;20286;-86
2023/03/23 08:49:06;;;;;;;;;;;16.70;93.60;;;;;;5103400;28;20341;-86
2023/03/23 08:51:32;;;;;;;;;;;16.70;93.60;;;;;;5100424;28;19916;-86
2023/03/23 08:53:58;;;;;;;;;;;16.70;93.60;;;;;;5102548;28;20146;-87
2023/03/23 08:56:24;;;;;;;;;;;16.70;93.50;;;;;;5102518;28;20186;-86
2023/03/23 08:58:49;;;;;;;;;;;16.70;93.50;;;;;;5104699;28;19927;-86
2023/03/23 09:01:15;;;;;;;;;;;16.70;93.50;;;;;;5088411;28;19908;-86
2023/03/23 09:03:41;;;;;;;;;;;16.70;93.40;;;;;;5106950;28;19919;-86
2023/03/23 09:06:07;;;;;;;;;;;16.70;93.40;;;;;;5092800;28;20059;-88
2023/03/23 09:08:35;;;;;;;;;;;16.70;93.40;;;;;;5108988;28;19908;-86
2023/03/23 09:11:02;;;;;;;;;;;16.80;93.40;;;;;;5106525;28;20285;-86
2023/03/23 09:13:28;;;;;;;;;;;16.80;93.30;;;;;;5107225;28;19948;-86
2023/03/23 09:15:54;;;;;;;;;;;16.80;93.20;;;;;;5108437;28;19908;-86
2023/03/23 09:18:19;;;;;;;;;;;16.80;93.10;;;;;;5108501;28;19915;-86
2023/03/23 09:20:45;;;;;;;;;;;16.90;93.10;;;;;;5072936;28;20292;-86
2023/03/23 09:23:12;;;;;;;;;;;16.90;93.00;;;;;;5105420;28;19919;-86
2023/03/23 09:25:38;;;;;;;;;;;16.90;92.90;;;;;;5089203;28;20300;-86
2023/03/23 09:28:04;;;;;;;;;;;16.90;92.90;;;;;;5090113;28;19909;-86
2023/03/23 09:30:31;;;;;;;;;;;16.90;92.90;;;;;;5106935;28;19994;-87
2023/03/23 09:32:57;;;;;;;;;;;16.90;92.80;;;;;;5104763;28;19919;-85
2023/03/23 09:35:23;;;;;;;;;;;16.90;92.90;;;;;;5087510;28;19931;-85
2023/03/23 09:37:50;;;;;;;;;;;16.90;92.80;;;;;;5104237;28;19923;-86
2023/03/23 09:40:20;;;;;;;;;;;16.90;92.80;;;;;;5103847;28;19916;-86
2023/03/23 09:42:58;;;;;;;;;;;16.90;92.80;;;;;;5101506;28;20016;-86
2023/03/23 09:45:24;;;;;;;;;;;16.90;92.70;;;;;;5104600;28;19953;-86
2023/03/23 09:47:49;;;;;;;;;;;16.90;92.70;;;;;;5103972;28;19947;-86
2023/03/23 09:50:20;;;;;;;;;;;16.90;92.70;;;;;;5104325;28;20290;-86
2023/03/23 09:52:51;;;;;;;;;;;16.90;92.60;;;;;;5105513;28;20282;-86
2023/03/23 09:55:17;;;;;;;;;;;17.00;92.60;;;;;;5104871;28;20170;-86
2023/03/23 09:57:46;;;;;;;;;;;17.00;92.50;;;;;;5105207;28;19911;-86
2023/03/23 10:00:16;;;;;;;;;;;17.00;92.50;;;;;;5105343;28;19909;-86
2023/03/23 10:03:02;;;;;;;;;;;17.00;92.60;;;;;;5103777;28;19916;-86
2023/03/23 10:05:31;;;;;;;;;;;17.00;92.50;;;;;;5102784;28;19909;-88
2023/03/23 10:07:57;;;;;;;;;;;17.00;92.40;;;;;;5103648;28;20471;-86
2023/03/23 10:10:55;;;;;;;;;;;17.00;92.40;;;;;;5103799;28;19908;-86
2023/03/23 10:13:27;;;;;;;;;;;17.10;92.80;;;;;;5034550;28;20071;-86
2023/03/23 10:15:54;;;;;;;;;;;17.10;92.40;;;;;;5103582;28;20269;-86
2023/03/23 10:18:24;;;;;;;;;;;17.20;92.40;;;;;;5104309;28;20032;-86
2023/03/23 10:20:58;;;;;;;;;;;17.30;92.30;;;;;;5071846;28;20068;-87
2023/03/23 10:23:35;;;;;;;;;;;17.50;91.80;;;;;;5103459;28;19915;-86
2023/03/23 10:26:08;;;;;;;;;;;17.50;91.70;;;;;;5107246;28;20136;-86
2023/03/23 10:28:40;;;;;;;;;;;17.40;91.70;;;;;;5104958;28;20026;-87
2023/03/23 10:31:09;;;;;;;;;;;17.40;91.80;;;;;;5104221;28;19912;-87
2023/03/23 10:33:34;;;;;;;;;;;17.30;91.80;;;;;;5100765;28;20172;-87
2023/03/23 10:36:03;;;;;;;;;;;17.20;92.00;;;;;;5102770;28;20144;-87
2023/03/23 10:38:49;;;;;;;;;;;17.10;92.10;;;;;;5102686;28;20171;-87
2023/03/23 10:41:16;;;;;;;;;;;17.10;92.20;;;;;;5067823;28;20349;-87
2023/03/23 10:43:43;;;;;;;;;;;17.10;92.30;;;;;;5103296;28;19916;-87
2023/03/23 10:46:22;;;;;;;;;;;17.10;92.40;;;;;;5104362;28;20337;-87
2023/03/23 10:48:49;;;;;;;;;;;17.00;92.40;;;;;;5105076;28;20003;-87
2023/03/23 10:51:17;;;;;;;;;;;17.00;92.50;;;;;;5088424;28;19908;-88
2023/03/23 10:53:45;;;;;;;;;;;17.00;92.50;;;;;;5105918;28;19908;-87
2023/03/23 10:56:22;;;;;;;;;;;17.00;92.60;;;;;;5113948;28;20123;-87
2023/03/23 10:58:47;;;;;;;;;;;16.90;92.60;;;;;;5107637;28;19958;-87
2023/03/23 11:01:13;;;;;;;;;;;17.00;93.00;;;;;;5108227;28;20261;-88
2023/03/23 11:03:40;;;;;;;;;;;17.00;92.70;;;;;;5089798;28;19908;-87
2023/03/23 11:06:08;;;;;;;;;;;17.00;92.70;;;;;;5103612;28;19912;-88
2023/03/23 11:08:36;;;;;;;;;;;17.00;92.70;;;;;;5103825;28;19908;-87
2023/03/23 11:11:07;;;;;;;;;;;17.00;92.70;;;;;;5104356;28;20056;-86
2023/03/23 11:13:33;;;;;;;;;;;17.00;92.70;;;;;;5103504;28;20254;-86
2023/03/23 11:16:00;;;;;;;;;;;17.00;92.80;;;;;;5104983;28;19907;-87
2023/03/23 11:18:45;;;;;;;;;;;16.90;92.80;;;;;;5089058;28;19920;-86
2023/03/23 11:21:12;;;;;;;;;;;16.90;92.80;;;;;;5105759;28;20076;-86
2023/03/23 11:23:48;;;;;;;;;;;16.90;92.90;;;;;;5104586;28;19908;-88
2023/03/23 11:26:16;;;;;;;;;;;16.90;92.90;;;;;;5069437;28;19909;-88
2023/03/23 11:29:00;;;;;;;;;;;16.90;93.00;;;;;;5106595;28;20270;-87
2023/03/23 11:31:31;;;;;;;;;;;16.90;93.10;;;;;;5106321;28;20178;-87
2023/03/23 11:34:02;;;;;;;;;;;16.90;93.10;;;;;;5104530;28;19943;-87
2023/03/23 11:36:36;;;;;;;;;;;16.80;93.10;;;;;;5088890;28;19916;-88
2023/03/23 11:39:04;;;;;;;;;;;16.80;93.20;;;;;;5105465;28;19912;-87
2023/03/23 11:41:31;;;;;;;;;;;16.80;93.30;;;;;;5105632;28;20114;-87
2023/03/23 11:44:02;;;;;;;;;;;16.80;93.30;;;;;;5105243;28;19908;-87
2023/03/23 11:46:38;;;;;;;;;;;16.80;93.30;;;;;;5105457;28;19912;-87
2023/03/23 11:49:20;;;;;;;;;;;16.80;93.30;;;;;;5106572;28;20075;-87
2023/03/23 11:51:48;;;;;;;;;;;16.80;93.40;;;;;;5104548;28;20165;-87
2023/03/23 11:54:47;;;;;;;;;;;16.80;93.40;;;;;;5103093;28;19908;-87
2023/03/23 11:57:13;;;;;;;;;;;16.80;93.40;;;;;;5035043;28;20358;-86
2023/03/23 11:59:39;;;;;;;;;;;16.80;93.40;;;;;;5102676;28;19909;-86
2023/03/23 12:02:23;;;;;;;;;;;16.80;93.30;;;;;;5101952;28;20462;-86
2023/03/23 12:04:52;;;;;;;;;;;16.90;93.30;;;;;;5099099;28;19912;-85
2023/03/23 12:07:18;;;;;;;;;;;16.90;93.20;;;;;;5100357;28;19919;-85
2023/03/23 12:10:03;;;;;;;;;;;16.90;93.20;;;;;;5084209;28;19908;-86
2023/03/23 12:12:38;;;;;;;;;;;17.00;98.20;;;;;;5099429;28;19918;-86
2023/03/23 12:15:22;;;;;;;;;;;17.10;97.70;;;;;;5083221;28;19923;-86
2023/03/23 12:17:55;;;;;;;;;;;17.10;97.10;;;;;;5097406;28;20290;-86
2023/03/23 12:20:26;;;;;;;;;;;17.00;96.70;;;;;;5099942;28;19908;-87
2023/03/23 12:23:02;;;;;;;;;;;17.10;96.60;;;;;;5068079;28;20317;-86
2023/03/23 12:25:29;;;;;;;;;;;17.10;96.50;;;;;;5099723;28;20080;-86
2023/03/23 12:28:15;;;;;;;;;;;17.10;96.40;;;;;;5096546;28;20282;-86
2023/03/23 12:30:59;;;;;;;;;;;17.20;96.20;;;;;;5097260;28;20067;-86
2023/03/23 12:33:25;;;;;;;;;;;17.20;96.00;;;;;;5094763;28;20343;-86
2023/03/23 12:36:17;;;;;;;;;;;17.20;96.00;;;;;;5098114;28;19920;-86
2023/03/23 12:39:03;;;;;;;;;;;17.20;96.00;;;;;;5058235;28;19923;-86
2023/03/23 12:41:41;;;;;;;;;;;17.20;96.10;;;;;;5098102;28;20232;-86
2023/03/23 12:44:12;;;;;;;;;;;17.20;96.10;;;;;;5100731;28;19912;-86
2023/03/23 12:46:56;;;;;;;;;;;17.20;96.20;;;;;;5101219;28;20208;-86
2023/03/23 12:49:29;;;;;;;;;;;17.10;96.30;;;;;;5103111;28;19981;-86
2023/03/23 12:52:00;;;;;;;;;;;17.10;96.30;;;;;;5101325;28;19908;-86
2023/03/23 12:54:28;;;;;;;;;;;17.10;96.40;;;;;;5102123;28;19969;-86
2023/03/23 12:57:05;;;;;;;;;;;17.10;96.50;;;;;;5101138;28;19916;-86
2023/03/23 12:59:49;;;;;;;;;;;17.10;96.50;;;;;;5101157;28;20349;-86
2023/03/23 13:02:15;;;;;;;;;;;17.10;96.50;;;;;;5101840;28;19935;-86
2023/03/23 13:04:44;;;;;;;;;;;17.10;96.60;;;;;;5102148;28;20193;-86
2023/03/23 13:07:12;;;;;;;;;;;17.10;96.60;;;;;;5099385;28;19912;-86
2023/03/23 13:10:08;;;;;;;;;;;17.10;96.60;;;;;;5100961;28;19958;-86
2023/03/23 13:12:39;;;;;;;;;;;17.10;96.60;;;;;;5056090;28;20192;-86
2023/03/23 13:15:18;;;;;;;;;;;17.10;96.60;;;;;;5101299;28;19965;-86
2023/03/23 13:17:54;;;;;;;;;;;17.10;96.60;;;;;;5086605;28;19912;-86
2023/03/23 13:20:32;;;;;;;;;;;17.20;96.60;;;;;;5102041;28;19912;-85
2023/03/23 13:23:06;;;;;;;;;;;17.20;96.70;;;;;;5103178;28;19939;-86
2023/03/23 13:25:31;;;;;;;;;;;17.20;96.70;;;;;;5104388;28;19923;-86
2023/03/23 13:27:58;;;;;;;;;;;17.30;96.50;;;;;;5103099;28;19908;-86
2023/03/23 13:30:24;;;;;;;;;;;17.30;96.40;;;;;;5101525;28;19919;-86
2023/03/23 13:32:50;;;;;;;;;;;17.30;96.40;;;;;;5084568;28;20289;-86
2023/03/23 13:35:20;;;;;;;;;;;17.30;96.30;;;;;;5084898;28;20027;-86
2023/03/23 13:37:48;;;;;;;;;;;17.40;96.30;;;;;;5085946;28;19912;-85
2023/03/23 13:40:17;;;;;;;;;;;17.40;96.20;;;;;;5100839;28;19908;-85
2023/03/23 13:42:50;;;;;;;;;;;17.50;96.00;;;;;;5086260;28;19973;-85
2023/03/23 13:45:22;;;;;;;;;;;17.50;95.90;;;;;;5099381;28;19908;-85
2023/03/23 13:47:48;;;;;;;;;;;17.50;95.90;;;;;;5099343;28;19908;-85
2023/03/23 13:50:17;;;;;;;;;;;17.50;95.90;;;;;;5104727;28;19908;-85
2023/03/23 13:52:51;;;;;;;;;;;17.40;95.90;;;;;;5104837;28;20132;-85
2023/03/23 13:55:20;;;;;;;;;;;17.40;96.00;;;;;;5088259;28;19923;-85
2023/03/23 13:57:50;;;;;;;;;;;17.40;96.10;;;;;;5105349;28;19959;-85
2023/03/23 14:00:31;;;;;;;;;;;17.40;96.10;;;;;;5105008;28;19968;-85
2023/03/23 14:03:13;;;;;;;;;;;17.40;96.20;;;;;;5086266;28;19919;-85
2023/03/23 14:05:45;;;;;;;;;;;17.40;96.20;;;;;;5102009;28;19916;-85
2023/03/23 14:08:16;;;;;;;;;;;17.40;96.20;;;;;;5100855;28;20010;-85
2023/03/23 14:10:48;;;;;;;;;;;17.40;96.20;;;;;;5102398;28;20019;-85
2023/03/23 14:13:16;;;;;;;;;;;17.40;96.20;;;;;;5084548;28;19944;-85
2023/03/23 14:15:44;;;;;;;;;;;17.30;96.10;;;;;;5102533;28;20056;-85
2023/03/23 14:18:14;;;;;;;;;;;17.40;96.20;;;;;;5109757;28;19927;-86
2023/03/23 14:20:40;;;;;;;;;;;17.30;96.10;;;;;;5086586;28;19916;-86
2023/03/23 14:23:06;;;;;;;;;;;17.30;96.10;;;;;;5102460;28;19908;-85
2023/03/23 14:25:32;;;;;;;;;;;17.40;96.10;;;;;;5088639;28;20054;-85